Skip Navigation LinksHome page > Weather > Current weather Skip Navigation Links

Current Weather

Chicago O'Hare Intl, Chicago

For information only: do not use for flight planning or navigation.
Latest weather
Observation time Monday, March 30, 2015 4:51 PM CDT
Local time Monday, March 30, 2015 5:58 PM CDT
Flight conditions Visual Meteorological Conditions
Winds
Wind direction North (360°)
Wind speed 8 mph
Visibility 10 mi.
Sky condition
Ceiling 10,000 ft. overcast
Cloud layer overcast 10,000 ft.
Temperature 59°F
Dewpoint 30°F
Altimeter 29.92 in.Hg
Derived measurements
Relative humidity 33%
Density altitude 759 ft.
Sea-level pressure 29.93 in.Hg
Remarks
Automated weather observing station with precipitation discriminator.
METAR KORD 302151Z 36007KT 10SM OVC100 15/M01 A2992 RMK AO2 SLP134 T01501011

Settings

Location code

InnerDrive.Weather 4.0.5567.0 Release CLR 4.0.30319.34014
Copyright ©2015 Inner Drive Technology. All rights reserved. Portions Copyright ©1986-2015 David Braverman.

Find weather

Site navigation


Skip Navigation Links

Place info

Page info

PayPal - The safer, easier way to pay online!

Return home.

Copyright ©2015 Inner Drive Technology. Purveyors of fine, hand-crafted computer software. Page printed 2015-03-30T22:58:50 UTC.